createdAt,value
2022-12-31T00:00:18.459Z,107.30
2022-12-31T00:03:12.414Z,105.20
2022-12-31T00:05:46.732Z,107.40
2022-12-31T00:08:19.415Z,110.30
2022-12-31T00:10:52.137Z,108.70
2022-12-31T00:13:25.767Z,108.00
2022-12-31T00:16:12.300Z,106.50
2022-12-31T00:18:49.318Z,110.80
2022-12-31T00:21:23.549Z,114.30
2022-12-31T00:23:56.201Z,112.00
2022-12-31T00:26:31.175Z,121.10
2022-12-31T00:29:05.019Z,115.20
2022-12-31T00:31:40.310Z,113.50
2022-12-31T00:34:13.986Z,110.60
2022-12-31T00:36:47.703Z,111.30
2022-12-31T00:39:20.455Z,107.00
2022-12-31T00:41:52.555Z,108.00
2022-12-31T00:44:24.816Z,108.90
2022-12-31T00:46:59.034Z,105.00
2022-12-31T00:49:33.923Z,109.00
2022-12-31T00:52:08.315Z,109.60
2022-12-31T00:54:40.875Z,107.30
2022-12-31T00:57:14.108Z,102.40
2022-12-31T00:59:47.094Z,102.90
2022-12-31T01:02:21.217Z,103.50
2022-12-31T01:04:57.050Z,105.10
2022-12-31T01:07:29.331Z,104.80
2022-12-31T01:10:01.230Z,101.90
2022-12-31T01:12:37.026Z,100.70
2022-12-31T01:15:11.288Z,102.80
2022-12-31T01:17:44.966Z,106.50
2022-12-31T01:20:19.090Z,108.10
2022-12-31T01:22:52.290Z,113.20
2022-12-31T01:25:25.008Z,147.90
2022-12-31T01:27:56.973Z,139.30
2022-12-31T01:30:28.789Z,136.50
2022-12-31T01:33:03.128Z,136.80
2022-12-31T01:35:37.248Z,114.80
2022-12-31T01:38:12.013Z,109.20
2022-12-31T01:40:46.918Z,113.70
2022-12-31T01:43:20.812Z,109.70
2022-12-31T01:45:54.756Z,103.60
2022-12-31T01:48:28.550Z,104.20
2022-12-31T01:51:00.828Z,107.40
2022-12-31T01:53:40.927Z,103.40
2022-12-31T01:56:14.880Z,101.30
2022-12-31T01:58:50.982Z,101.00
2022-12-31T02:01:31.186Z,103.20
2022-12-31T02:04:09.457Z,101.10
2022-12-31T02:06:45.575Z,96.50
2022-12-31T02:09:19.577Z,95.50
2022-12-31T02:11:54.280Z,98.20
2022-12-31T02:14:30.084Z,101.50
2022-12-31T02:17:09.641Z,104.90
2022-12-31T02:20:09.592Z,104.70
2022-12-31T02:23:04.942Z,99.80
2022-12-31T02:25:54.430Z,98.90
2022-12-31T02:28:38.678Z,95.40
2022-12-31T02:31:16.808Z,95.90
2022-12-31T02:33:56.538Z,94.70
2022-12-31T02:36:31.294Z,94.30
2022-12-31T02:39:06.708Z,93.00
2022-12-31T02:41:52.635Z,94.80
2022-12-31T02:44:27.713Z,94.00
2022-12-31T02:47:12.561Z,95.40
2022-12-31T02:49:59.359Z,95.30
2022-12-31T02:52:39.120Z,91.50
2022-12-31T02:55:16.582Z,91.60
2022-12-31T02:57:52.462Z,88.30
2022-12-31T03:00:44.436Z,84.00
2022-12-31T03:03:18.679Z,83.90
2022-12-31T03:05:53.545Z,89.60
2022-12-31T03:08:29.358Z,104.60
2022-12-31T03:11:21.439Z,108.70
2022-12-31T03:13:53.407Z,93.20
2022-12-31T03:16:26.168Z,101.40
2022-12-31T03:19:19.128Z,93.60
2022-12-31T03:22:13.020Z,96.90
2022-12-31T03:25:06.621Z,75.80
2022-12-31T03:27:43.834Z,66.00
2022-12-31T03:30:18.985Z,64.90
2022-12-31T03:32:51.555Z,63.80
2022-12-31T03:35:25.307Z,55.60
2022-12-31T03:38:00.148Z,58.60
2022-12-31T03:40:41.672Z,55.50
2022-12-31T03:43:14.034Z,58.50
2022-12-31T03:45:47.821Z,51.10
2022-12-31T03:48:20.998Z,55.60
2022-12-31T03:50:59.544Z,44.20
2022-12-31T03:53:32.264Z,44.20
2022-12-31T03:56:07.300Z,43.50
2022-12-31T03:58:39.906Z,36.20
2022-12-31T04:01:17.561Z,33.20
2022-12-31T04:03:49.679Z,31.30
2022-12-31T04:06:22.443Z,28.80
2022-12-31T04:08:57.198Z,28.10
2022-12-31T04:11:30.066Z,25.50
2022-12-31T04:14:04.783Z,23.60
2022-12-31T04:16:39.987Z,23.20
2022-12-31T04:19:16.509Z,21.20
2022-12-31T04:21:50.526Z,20.30
2022-12-31T04:24:27.207Z,20.50
2022-12-31T04:27:07.013Z,32.20
2022-12-31T04:29:40.038Z,17.50
2022-12-31T04:32:15.469Z,18.60
2022-12-31T04:34:48.495Z,17.90
2022-12-31T04:37:22.277Z,17.40
2022-12-31T04:39:55.436Z,35.30
2022-12-31T04:42:30.707Z,17.00
2022-12-31T04:45:02.680Z,21.00
2022-12-31T04:47:35.636Z,15.10
2022-12-31T04:50:09.815Z,14.80
2022-12-31T04:52:44.715Z,21.90
2022-12-31T04:55:20.195Z,16.90
2022-12-31T04:57:53.703Z,15.50
2022-12-31T05:00:25.682Z,15.30
2022-12-31T05:02:57.609Z,17.00
2022-12-31T05:05:31.368Z,17.80
2022-12-31T05:08:05.528Z,17.40
2022-12-31T05:10:37.679Z,19.10
2022-12-31T05:13:10.528Z,15.10
2022-12-31T05:15:46.712Z,16.10
2022-12-31T05:18:20.186Z,18.50
2022-12-31T05:20:56.692Z,16.40
2022-12-31T05:23:32.535Z,16.80
2022-12-31T05:26:06.498Z,16.20
2022-12-31T05:28:40.570Z,18.40
2022-12-31T05:31:15.621Z,15.90
2022-12-31T05:33:50.659Z,17.30
2022-12-31T05:36:24.114Z,13.70
2022-12-31T05:38:56.934Z,14.20
2022-12-31T05:41:31.145Z,13.40
2022-12-31T05:44:05.734Z,12.60
2022-12-31T05:46:38.927Z,12.60
2022-12-31T05:49:11.913Z,12.70
2022-12-31T05:51:44.985Z,11.40
2022-12-31T05:54:18.974Z,11.60
2022-12-31T05:56:51.513Z,11.20
2022-12-31T05:59:24.798Z,12.40
2022-12-31T06:01:59.025Z,13.30
2022-12-31T06:04:35.121Z,12.80
2022-12-31T06:07:10.632Z,13.70
2022-12-31T06:09:43.567Z,13.80
2022-12-31T06:12:19.680Z,15.40
2022-12-31T06:14:52.226Z,16.60
2022-12-31T06:17:27.070Z,17.00
2022-12-31T06:20:04.841Z,14.90
2022-12-31T06:22:40.253Z,17.10
2022-12-31T06:25:15.956Z,16.10
2022-12-31T06:27:49.640Z,14.70
2022-12-31T06:30:23.684Z,15.30
2022-12-31T06:32:57.296Z,14.00
2022-12-31T06:35:30.851Z,16.00
2022-12-31T06:38:04.737Z,31.70
2022-12-31T06:40:40.470Z,34.70
2022-12-31T06:43:15.693Z,14.60
2022-12-31T06:45:50.799Z,13.50
2022-12-31T06:48:26.608Z,14.30
2022-12-31T06:51:13.401Z,13.70
2022-12-31T06:53:50.935Z,12.10
2022-12-31T06:56:33.140Z,14.40
2022-12-31T06:59:11.076Z,11.70
2022-12-31T07:01:53.545Z,12.60
2022-12-31T07:04:50.400Z,13.20
2022-12-31T07:07:30.362Z,11.80
2022-12-31T07:10:11.923Z,15.00
2022-12-31T07:12:57.731Z,12.80
2022-12-31T07:15:45.587Z,11.30
2022-12-31T07:18:25.929Z,11.10
2022-12-31T07:20:59.023Z,11.50
2022-12-31T07:23:33.750Z,11.40
2022-12-31T07:26:12.143Z,11.90
2022-12-31T07:28:57.678Z,11.00
2022-12-31T07:31:43.468Z,11.40
2022-12-31T07:34:23.677Z,10.50
2022-12-31T07:37:04.150Z,10.30
2022-12-31T07:39:45.325Z,10.30
2022-12-31T07:42:23.930Z,10.50
2022-12-31T07:45:05.375Z,9.10
2022-12-31T07:47:39.203Z,9.40
2022-12-31T07:50:18.321Z,8.50
2022-12-31T07:52:54.315Z,8.70
2022-12-31T07:55:28.897Z,7.80
2022-12-31T07:58:07.658Z,7.30
2022-12-31T08:00:41.521Z,7.60
2022-12-31T08:03:26.222Z,7.30
2022-12-31T08:06:10.302Z,7.50
2022-12-31T08:08:51.671Z,7.90
2022-12-31T08:11:29.992Z,7.30
2022-12-31T08:14:05.353Z,7.20
2022-12-31T08:16:39.604Z,6.90
2022-12-31T08:19:18.659Z,6.60
2022-12-31T08:21:59.910Z,7.30
2022-12-31T08:24:40.708Z,6.50
2022-12-31T08:27:22.360Z,7.60
2022-12-31T08:30:05.568Z,7.00
2022-12-31T08:32:45.085Z,6.80
2022-12-31T08:35:28.744Z,6.60
2022-12-31T08:38:09.257Z,8.80
2022-12-31T08:40:51.294Z,7.00
2022-12-31T08:43:38.856Z,6.80
2022-12-31T08:46:20.696Z,8.40
2022-12-31T08:48:55.047Z,18.80
2022-12-31T08:51:28.717Z,9.40
2022-12-31T08:54:04.100Z,7.80
2022-12-31T08:56:48.839Z,7.10
2022-12-31T08:59:37.038Z,6.60
2022-12-31T09:02:35.384Z,6.50
2022-12-31T09:05:20.421Z,6.70
2022-12-31T09:08:00.207Z,5.40
2022-12-31T09:10:37.998Z,6.30
2022-12-31T09:13:20.644Z,7.10
2022-12-31T09:15:58.719Z,7.50
2022-12-31T09:18:34.334Z,6.00
2022-12-31T09:21:09.080Z,7.60
2022-12-31T09:23:43.376Z,9.30
2022-12-31T09:26:31.290Z,10.20
2022-12-31T09:29:10.728Z,6.70
2022-12-31T09:31:48.357Z,7.40
2022-12-31T09:34:27.008Z,5.70
2022-12-31T09:37:06.960Z,6.40
2022-12-31T09:39:42.474Z,7.50
2022-12-31T09:42:57.262Z,8.00
2022-12-31T09:45:54.005Z,9.70
2022-12-31T09:48:57.311Z,7.20
2022-12-31T09:51:34.110Z,8.00
2022-12-31T09:54:44.216Z,7.80
2022-12-31T09:57:33.006Z,6.40
2022-12-31T10:00:11.056Z,7.10
2022-12-31T10:02:53.994Z,6.80
2022-12-31T10:05:41.372Z,8.10
2022-12-31T10:08:24.583Z,10.40
2022-12-31T10:11:03.412Z,7.70
2022-12-31T10:13:45.300Z,13.50
2022-12-31T10:16:38.102Z,6.70
2022-12-31T10:19:40.683Z,6.20
2022-12-31T10:22:36.100Z,5.90
2022-12-31T10:25:38.381Z,7.10
2022-12-31T10:28:26.001Z,5.50
2022-12-31T10:31:16.812Z,5.80
2022-12-31T10:34:02.301Z,4.50
2022-12-31T10:36:45.158Z,5.50
2022-12-31T10:39:28.625Z,5.50
2022-12-31T10:42:22.182Z,6.30
2022-12-31T10:45:38.492Z,5.30
2022-12-31T10:48:31.200Z,6.30
2022-12-31T10:51:19.285Z,4.90
2022-12-31T10:54:16.824Z,5.20
2022-12-31T10:57:16.460Z,5.50
2022-12-31T11:00:17.546Z,5.80
2022-12-31T11:03:29.225Z,4.70
2022-12-31T11:06:34.730Z,4.70
2022-12-31T11:09:37.905Z,4.10
2022-12-31T11:12:22.771Z,4.80
2022-12-31T11:15:14.712Z,6.30
2022-12-31T11:17:58.293Z,4.60
2022-12-31T11:21:07.532Z,4.40
2022-12-31T11:23:43.714Z,4.20
2022-12-31T11:26:25.984Z,4.40
2022-12-31T11:29:08.703Z,5.50
2022-12-31T11:31:58.545Z,5.70
2022-12-31T11:34:50.465Z,5.90
2022-12-31T11:37:32.863Z,5.90
2022-12-31T11:40:23.607Z,6.60
2022-12-31T11:43:00.229Z,4.90
2022-12-31T11:46:00.584Z,5.20
2022-12-31T11:48:36.120Z,5.30
2022-12-31T11:51:31.066Z,4.60
2022-12-31T11:54:34.520Z,4.90
2022-12-31T11:57:25.482Z,4.20
2022-12-31T12:00:06.047Z,5.10
2022-12-31T12:02:44.407Z,5.20
2022-12-31T12:05:22.449Z,5.50
2022-12-31T12:07:57.316Z,9.20
2022-12-31T12:10:36.536Z,7.80
2022-12-31T12:13:20.225Z,7.60
2022-12-31T12:15:54.651Z,7.00
2022-12-31T12:18:36.557Z,7.50
2022-12-31T12:21:13.194Z,7.80
2022-12-31T12:23:59.397Z,6.00
2022-12-31T12:26:37.671Z,5.60
2022-12-31T12:29:18.141Z,7.10
2022-12-31T12:32:03.105Z,5.70
2022-12-31T12:34:36.707Z,5.90
2022-12-31T12:37:18.068Z,6.10
2022-12-31T12:39:59.437Z,7.90
2022-12-31T12:42:36.642Z,6.10
2022-12-31T12:45:18.272Z,5.10
2022-12-31T12:47:52.764Z,6.10
2022-12-31T12:50:34.685Z,6.10
2022-12-31T12:53:15.859Z,5.70
2022-12-31T12:56:00.720Z,5.80
2022-12-31T12:58:47.568Z,5.70
2022-12-31T13:01:28.982Z,6.00
2022-12-31T13:04:34.444Z,5.80
2022-12-31T13:07:20.362Z,6.30
2022-12-31T13:10:05.925Z,6.30
2022-12-31T13:13:21.979Z,6.90
2022-12-31T13:15:49.268Z,6.30
2022-12-31T13:18:35.675Z,6.60
2022-12-31T13:21:18.424Z,7.30
2022-12-31T13:23:53.462Z,6.20
2022-12-31T13:26:29.096Z,6.00
2022-12-31T13:29:03.184Z,5.90
2022-12-31T13:31:44.228Z,7.00
2022-12-31T13:34:20.729Z,6.70
2022-12-31T13:36:57.473Z,6.60
2022-12-31T13:39:35.187Z,7.70
2022-12-31T13:42:12.984Z,7.60
2022-12-31T13:44:50.447Z,7.10
2022-12-31T13:47:32.185Z,8.10
2022-12-31T13:50:15.105Z,8.30
2022-12-31T13:52:53.157Z,7.30
2022-12-31T13:55:29.966Z,8.30
2022-12-31T13:58:10.551Z,7.20
2022-12-31T14:00:49.063Z,7.00
2022-12-31T14:03:27.130Z,12.90
2022-12-31T14:06:06.727Z,20.90
2022-12-31T14:08:43.615Z,8.80
2022-12-31T14:11:28.262Z,7.50
2022-12-31T14:14:13.580Z,7.80
2022-12-31T14:16:52.995Z,23.10
2022-12-31T14:19:41.034Z,10.70
2022-12-31T14:22:18.415Z,8.40
2022-12-31T14:24:54.901Z,9.10
2022-12-31T14:27:30.829Z,13.20
2022-12-31T14:30:06.532Z,12.40
2022-12-31T14:33:03.023Z,11.90
2022-12-31T14:35:49.432Z,10.70
2022-12-31T14:38:29.507Z,11.50
2022-12-31T14:41:13.754Z,10.80
2022-12-31T14:43:52.691Z,7.50
2022-12-31T14:46:32.893Z,9.10
2022-12-31T14:49:18.182Z,9.90
2022-12-31T14:51:54.202Z,10.70
2022-12-31T14:54:36.451Z,16.70
2022-12-31T14:57:25.417Z,7.80
2022-12-31T14:59:59.835Z,8.40
2022-12-31T15:02:35.832Z,7.90
2022-12-31T15:05:18.266Z,9.40
2022-12-31T15:07:58.802Z,8.50
2022-12-31T15:10:43.212Z,8.60
2022-12-31T15:13:26.522Z,8.70
2022-12-31T15:16:22.509Z,9.40
2022-12-31T15:19:21.067Z,9.90
2022-12-31T15:22:03.971Z,19.50
2022-12-31T15:24:36.727Z,50.60
2022-12-31T15:27:31.161Z,12.10
2022-12-31T15:30:08.152Z,15.00
2022-12-31T15:32:43.135Z,17.00
2022-12-31T15:35:31.273Z,12.10
2022-12-31T15:38:20.359Z,10.70
2022-12-31T15:40:55.366Z,10.00
2022-12-31T15:43:34.044Z,10.60
2022-12-31T15:46:16.921Z,10.10
2022-12-31T15:48:55.450Z,10.70
2022-12-31T15:51:33.842Z,11.70
2022-12-31T15:54:07.923Z,9.80
2022-12-31T15:56:47.516Z,11.90
2022-12-31T15:59:21.275Z,16.60
2022-12-31T16:01:55.352Z,20.40
2022-12-31T16:04:34.446Z,12.40
2022-12-31T16:07:08.343Z,15.60
2022-12-31T16:09:41.168Z,12.00
2022-12-31T16:12:23.079Z,15.40
2022-12-31T16:15:00.086Z,11.50
2022-12-31T16:17:34.466Z,11.50
2022-12-31T16:20:25.548Z,11.90
2022-12-31T16:23:00.124Z,12.20
2022-12-31T16:25:38.423Z,12.50
2022-12-31T16:28:16.157Z,40.50
2022-12-31T16:31:01.675Z,13.70
2022-12-31T16:33:35.701Z,12.80
2022-12-31T16:36:17.257Z,12.50
2022-12-31T16:38:49.925Z,17.50
2022-12-31T16:41:24.455Z,14.10
2022-12-31T16:43:59.149Z,11.60
2022-12-31T16:46:34.674Z,13.00
2022-12-31T16:49:14.290Z,12.90
2022-12-31T16:51:48.112Z,14.30
2022-12-31T16:54:30.758Z,33.10
2022-12-31T16:57:05.771Z,18.40
2022-12-31T16:59:43.397Z,20.30
2022-12-31T17:02:21.514Z,13.70
2022-12-31T17:04:56.281Z,21.50
2022-12-31T17:07:38.753Z,22.20
2022-12-31T17:10:22.952Z,28.00
2022-12-31T17:13:27.806Z,24.90
2022-12-31T17:15:51.931Z,15.40
2022-12-31T17:18:27.355Z,23.20
2022-12-31T17:21:09.443Z,23.00
2022-12-31T17:23:45.919Z,14.90
2022-12-31T17:26:26.465Z,16.20
2022-12-31T17:29:01.389Z,22.10
2022-12-31T17:31:37.796Z,22.90
2022-12-31T17:34:27.829Z,16.30
2022-12-31T17:37:26.815Z,22.50
2022-12-31T17:40:40.903Z,17.40
2022-12-31T17:42:58.862Z,17.50
2022-12-31T17:45:32.240Z,20.40
2022-12-31T17:48:08.699Z,31.20
2022-12-31T17:50:49.947Z,14.40
2022-12-31T17:53:24.012Z,22.90
2022-12-31T17:56:01.623Z,12.80
2022-12-31T17:58:36.826Z,26.30
2022-12-31T18:01:10.928Z,15.10
2022-12-31T18:03:45.356Z,18.70
2022-12-31T18:06:23.231Z,18.70
2022-12-31T18:08:59.316Z,15.20
2022-12-31T18:11:36.353Z,15.10
2022-12-31T18:14:11.796Z,13.80
2022-12-31T18:16:46.318Z,18.00
2022-12-31T18:19:54.305Z,19.20
2022-12-31T18:22:19.842Z,16.60
2022-12-31T18:24:55.308Z,12.90
2022-12-31T18:27:32.321Z,18.90
2022-12-31T18:30:08.540Z,15.90
2022-12-31T18:32:42.681Z,15.40
2022-12-31T18:36:07.177Z,14.90
2022-12-31T18:38:16.233Z,15.00
2022-12-31T18:40:55.321Z,14.30
2022-12-31T18:43:29.591Z,17.10
2022-12-31T18:46:03.272Z,11.90
2022-12-31T18:48:35.504Z,10.60
2022-12-31T18:51:09.104Z,11.10
2022-12-31T18:53:41.674Z,12.50
2022-12-31T18:56:17.218Z,11.00
2022-12-31T18:58:51.040Z,16.20
2022-12-31T19:01:30.751Z,10.70
2022-12-31T19:04:04.367Z,12.50
2022-12-31T19:06:39.183Z,12.90
2022-12-31T19:09:43.357Z,13.10
2022-12-31T19:12:13.179Z,12.50
2022-12-31T19:14:47.318Z,12.60
2022-12-31T19:17:22.738Z,11.20
2022-12-31T19:19:55.303Z,11.00
2022-12-31T19:22:29.956Z,10.30
2022-12-31T19:25:04.735Z,10.40
2022-12-31T19:27:37.775Z,12.20
2022-12-31T19:30:18.270Z,9.20
2022-12-31T19:32:55.400Z,9.40
2022-12-31T19:35:28.594Z,12.40
2022-12-31T19:45:22.551Z,8.90
2022-12-31T19:47:56.938Z,40.20
2022-12-31T19:50:36.989Z,20.50
2022-12-31T19:53:17.973Z,13.50
2022-12-31T19:55:53.304Z,12.60
2022-12-31T19:58:36.865Z,12.70
2022-12-31T20:01:10.297Z,11.40
2022-12-31T20:03:45.016Z,13.30
2022-12-31T20:06:19.465Z,14.10
2022-12-31T20:08:52.498Z,10.80
2022-12-31T20:11:26.741Z,10.20
2022-12-31T20:14:00.900Z,11.50
2022-12-31T20:16:34.927Z,14.00
2022-12-31T20:19:08.594Z,26.50
2022-12-31T20:21:43.348Z,16.10
2022-12-31T20:24:16.960Z,11.70
2022-12-31T20:26:49.139Z,12.10
2022-12-31T20:29:22.157Z,11.20
2022-12-31T20:31:58.712Z,12.40
2022-12-31T20:34:32.538Z,12.70
2022-12-31T20:37:05.589Z,12.40
2022-12-31T20:39:39.627Z,13.90
2022-12-31T20:42:12.418Z,12.90
2022-12-31T20:44:45.290Z,11.30
2022-12-31T20:47:20.880Z,10.50
2022-12-31T20:50:12.651Z,20.10
2022-12-31T20:52:46.780Z,13.70
2022-12-31T20:55:19.690Z,12.20
2022-12-31T20:57:57.117Z,10.00
2022-12-31T21:00:30.077Z,10.40
2022-12-31T21:03:14.283Z,10.00
2022-12-31T21:05:58.326Z,14.10
2022-12-31T21:08:35.066Z,10.70
2022-12-31T21:11:30.407Z,13.40
2022-12-31T21:14:05.954Z,11.80
2022-12-31T21:16:39.243Z,19.40
2022-12-31T21:19:16.399Z,13.70
2022-12-31T21:21:49.900Z,11.30
2022-12-31T21:24:24.187Z,10.40
2022-12-31T21:26:58.713Z,11.80
2022-12-31T21:29:34.937Z,12.90
2022-12-31T21:32:08.610Z,12.80
2022-12-31T21:34:43.259Z,14.30
2022-12-31T21:37:15.369Z,13.40
2022-12-31T21:39:49.891Z,13.90
2022-12-31T21:42:25.172Z,14.70
2022-12-31T21:44:58.258Z,13.50
2022-12-31T21:47:49.355Z,16.50
2022-12-31T21:50:23.080Z,29.30
2022-12-31T21:52:56.070Z,16.20
2022-12-31T21:55:49.437Z,15.40
2022-12-31T21:58:27.770Z,13.60
2022-12-31T22:01:34.256Z,13.40
2022-12-31T22:04:28.115Z,12.90
2022-12-31T22:07:00.723Z,12.40
2022-12-31T22:09:36.955Z,12.80
2022-12-31T22:12:10.392Z,17.50
2022-12-31T22:15:15.889Z,13.40
2022-12-31T22:17:37.427Z,15.00
2022-12-31T22:20:28.507Z,11.90
2022-12-31T22:23:05.298Z,13.00
2022-12-31T22:25:38.783Z,11.80
2022-12-31T22:28:37.543Z,12.40
2022-12-31T22:31:04.315Z,14.90
2022-12-31T22:33:37.458Z,13.10
2022-12-31T22:36:14.050Z,12.90
2022-12-31T22:38:47.131Z,13.40
2022-12-31T22:41:21.932Z,12.30
2022-12-31T22:44:02.695Z,13.10
2022-12-31T22:46:38.437Z,12.30
2022-12-31T22:49:13.247Z,17.80
2022-12-31T22:51:57.670Z,16.10
2022-12-31T22:54:33.145Z,12.70
2022-12-31T22:57:08.003Z,20.00
2022-12-31T22:59:41.652Z,13.50
2022-12-31T23:02:13.649Z,17.70
2022-12-31T23:04:50.233Z,34.20
2022-12-31T23:07:23.148Z,47.60
2022-12-31T23:10:13.793Z,63.10
2022-12-31T23:12:47.591Z,50.50
2022-12-31T23:15:39.397Z,44.50
2022-12-31T23:18:33.527Z,46.50
2022-12-31T23:21:30.418Z,40.00
2022-12-31T23:24:04.614Z,34.70
2022-12-31T23:26:38.183Z,26.10
2022-12-31T23:29:12.415Z,25.20
2022-12-31T23:31:49.166Z,24.50
2022-12-31T23:34:23.920Z,24.40
